IGO695 VOHS-VABB
Flight info
| Callsign | IGO695 |
|---|---|
| Flight time | 0h 59m |
| Altitude | 38000 |
| Route | TAMIV5 APUSU W18 OPAKA EMRAK2A |
| Aircraft | A21N/M-SDE2E3FGHIRWXY/LB1 |
Departure
| Time | 2026-04-25 09:32 |
|---|---|
| Airport | Rajiv Gandhi International Airport (VOHS) |
Arrival
| Time | 2026-04-25 10:32 |
|---|---|
| Airport | Chhatrapati Shivaji Maharaj International Airport (VABB) |
| Time | Latitude | Longitude | Altitude | Speed | Heading |
|---|---|---|---|---|---|
| 2026-04-25 08:46 | 17.23416 | 78.43408 | 1986 ft | 0 kts | 360° |
| 2026-04-25 09:06 | 17.23407 | 78.43408 | 1985 ft | 4 kts | 4° |
| 2026-04-25 09:07 | 17.23381 | 78.43402 | 1983 ft | 4 kts | 34° |
| 2026-04-25 09:07 | 17.23366 | 78.43383 | 1984 ft | 4 kts | 81° |
| 2026-04-25 09:07 | 17.23365 | 78.43385 | 1984 ft | 4 kts | 90° |
| 2026-04-25 09:07 | 17.23365 | 78.43395 | 1984 ft | 0 kts | 90° |
| 2026-04-25 09:13 | 17.23365 | 78.43400 | 1983 ft | 3 kts | 90° |
| 2026-04-25 09:13 | 17.23366 | 78.43440 | 1983 ft | 8 kts | 89° |
| 2026-04-25 09:13 | 17.23367 | 78.43514 | 1983 ft | 12 kts | 89° |
| 2026-04-25 09:14 | 17.23368 | 78.43608 | 1983 ft | 13 kts | 89° |
| 2026-04-25 09:14 | 17.23362 | 78.43681 | 1984 ft | 9 kts | 122° |
| 2026-04-25 09:14 | 17.23311 | 78.43696 | 1985 ft | 5 kts | 180° |
| 2026-04-25 09:14 | 17.23305 | 78.43696 | 1986 ft | 0 kts | 180° |
| 2026-04-25 09:18 | 17.23295 | 78.43696 | 1985 ft | 4 kts | 180° |
| 2026-04-25 09:18 | 17.23256 | 78.43696 | 1984 ft | 7 kts | 179° |
| 2026-04-25 09:18 | 17.23206 | 78.43697 | 1984 ft | 5 kts | 179° |
| 2026-04-25 09:18 | 17.23198 | 78.43697 | 1985 ft | 0 kts | 179° |
| 2026-04-25 09:19 | 17.23194 | 78.43697 | 1985 ft | 2 kts | 179° |
| 2026-04-25 09:20 | 17.23162 | 78.43697 | 1984 ft | 7 kts | 179° |
| 2026-04-25 09:20 | 17.23115 | 78.43706 | 1986 ft | 8 kts | 149° |
| 2026-04-25 09:20 | 17.23093 | 78.43777 | 1983 ft | 14 kts | 90° |
| 2026-04-25 09:20 | 17.23095 | 78.43905 | 1983 ft | 21 kts | 89° |
| 2026-04-25 09:21 | 17.23097 | 78.44055 | 1984 ft | 20 kts | 89° |
| 2026-04-25 09:21 | 17.23099 | 78.44203 | 1987 ft | 20 kts | 89° |
| 2026-04-25 09:21 | 17.23101 | 78.44351 | 1987 ft | 21 kts | 89° |
| 2026-04-25 09:21 | 17.23103 | 78.44501 | 1984 ft | 20 kts | 89° |
| 2026-04-25 09:22 | 17.23105 | 78.44649 | 1984 ft | 20 kts | 89° |
| 2026-04-25 09:22 | 17.23107 | 78.44800 | 1985 ft | 21 kts | 89° |
| 2026-04-25 09:22 | 17.23109 | 78.44954 | 1985 ft | 21 kts | 89° |
| 2026-04-25 09:22 | 17.23110 | 78.45107 | 1986 ft | 21 kts | 89° |
| 2026-04-25 09:23 | 17.23112 | 78.45227 | 1986 ft | 12 kts | 89° |
| 2026-04-25 09:23 | 17.23112 | 78.45271 | 1986 ft | 0 kts | 89° |
| 2026-04-25 09:24 | 17.23111 | 78.45285 | 1986 ft | 5 kts | 102° |
| 2026-04-25 09:24 | 17.23077 | 78.45316 | 1985 ft | 8 kts | 161° |
| 2026-04-25 09:25 | 17.23032 | 78.45319 | 1983 ft | 1 kts | 181° |
| 2026-04-25 09:29 | 17.23011 | 78.45318 | 1985 ft | 6 kts | 185° |
| 2026-04-25 09:29 | 17.22965 | 78.45291 | 1985 ft | 9 kts | 221° |
| 2026-04-25 09:29 | 17.22920 | 78.45250 | 1985 ft | 7 kts | 224° |
| 2026-04-25 09:29 | 17.22909 | 78.45206 | 1986 ft | 6 kts | 270° |
| 2026-04-25 09:30 | 17.22909 | 78.45200 | 1985 ft | 0 kts | 270° |
| 2026-04-25 09:31 | 17.22909 | 78.45197 | 1985 ft | 4 kts | 270° |
| 2026-04-25 09:31 | 17.22909 | 78.45111 | 1984 ft | 36 kts | 270° |
| 2026-04-25 09:31 | 17.22900 | 78.44400 | 1985 ft | 111 kts | 269° |
| 2026-04-25 09:31 | 17.22885 | 78.43381 | 1986 ft | 166 kts | 269° |
| 2026-04-25 09:32 | 17.22870 | 78.42064 | 2204 ft | 183 kts | 269° |
| 2026-04-25 09:32 | 17.22840 | 78.40757 | 2857 ft | 178 kts | 267° |
| 2026-04-25 09:32 | 17.22815 | 78.39418 | 3217 ft | 196 kts | 269° |
| 2026-04-25 09:32 | 17.22805 | 78.37909 | 3426 ft | 219 kts | 270° |
| 2026-04-25 09:33 | 17.22788 | 78.36230 | 3595 ft | 242 kts | 270° |
| 2026-04-25 09:33 | 17.22763 | 78.34375 | 3776 ft | 268 kts | 269° |
| 2026-04-25 09:33 | 17.22882 | 78.32375 | 4174 ft | 282 kts | 281° |
| 2026-04-25 09:33 | 17.23358 | 78.30388 | 4909 ft | 282 kts | 287° |
| 2026-04-25 09:34 | 17.23927 | 78.28417 | 5666 ft | 283 kts | 288° |
| 2026-04-25 09:34 | 17.24510 | 78.26448 | 6403 ft | 285 kts | 288° |
| 2026-04-25 09:34 | 17.25099 | 78.24451 | 7085 ft | 290 kts | 288° |
| 2026-04-25 09:34 | 17.25695 | 78.22423 | 7792 ft | 293 kts | 288° |
| 2026-04-25 09:35 | 17.26294 | 78.20378 | 8595 ft | 294 kts | 288° |
| 2026-04-25 09:35 | 17.26893 | 78.18327 | 9415 ft | 296 kts | 288° |
| 2026-04-25 09:35 | 17.27496 | 78.16254 | 10136 ft | 300 kts | 288° |
| 2026-04-25 09:35 | 17.28109 | 78.14155 | 10661 ft | 313 kts | 288° |
| 2026-04-25 09:36 | 17.28766 | 78.11899 | 10884 ft | 336 kts | 288° |
| 2026-04-25 09:36 | 17.29466 | 78.09495 | 11057 ft | 353 kts | 288° |
| 2026-04-25 09:36 | 17.30184 | 78.07021 | 11681 ft | 357 kts | 288° |
| 2026-04-25 09:36 | 17.30905 | 78.04533 | 12406 ft | 359 kts | 288° |
| 2026-04-25 09:37 | 17.31634 | 78.02022 | 13076 ft | 363 kts | 288° |
| 2026-04-25 09:37 | 17.32369 | 77.99486 | 13655 ft | 365 kts | 288° |
| 2026-04-25 09:37 | 17.33107 | 77.96938 | 13883 ft | 367 kts | 288° |
| 2026-04-25 09:37 | 17.33850 | 77.94375 | 13922 ft | 368 kts | 287° |
| 2026-04-25 09:38 | 17.34595 | 77.91802 | 13925 ft | 370 kts | 287° |
| 2026-04-25 09:38 | 17.35341 | 77.89224 | 13925 ft | 371 kts | 287° |
| 2026-04-25 09:38 | 17.36088 | 77.86638 | 14013 ft | 373 kts | 287° |
| 2026-04-25 09:38 | 17.36844 | 77.84025 | 14581 ft | 375 kts | 287° |
| 2026-04-25 09:39 | 17.37596 | 77.81422 | 15405 ft | 373 kts | 287° |
| 2026-04-25 09:39 | 17.38347 | 77.78823 | 16123 ft | 374 kts | 287° |
| 2026-04-25 09:39 | 17.39099 | 77.76218 | 16892 ft | 373 kts | 287° |
| 2026-04-25 09:40 | 17.40597 | 77.71027 | 18352 ft | 373 kts | 286° |
| 2026-04-25 09:40 | 17.41350 | 77.68411 | 18819 ft | 377 kts | 285° |
| 2026-04-25 09:40 | 17.42110 | 77.65772 | 19283 ft | 381 kts | 285° |
| 2026-04-25 09:40 | 17.42879 | 77.63102 | 19774 ft | 384 kts | 285° |
| 2026-04-25 09:41 | 17.43609 | 77.60407 | 20252 ft | 385 kts | 281° |
| 2026-04-25 09:41 | 17.44104 | 77.57644 | 20733 ft | 387 kts | 277° |
| 2026-04-25 09:41 | 17.44482 | 77.54841 | 21220 ft | 390 kts | 275° |
| 2026-04-25 09:41 | 17.44839 | 77.52019 | 21736 ft | 392 kts | 275° |
| 2026-04-25 09:42 | 17.45197 | 77.49180 | 22260 ft | 394 kts | 275° |
| 2026-04-25 09:42 | 17.45436 | 77.47296 | 22601 ft | 396 kts | 275° |
| 2026-04-25 09:42 | 17.45923 | 77.43453 | 23283 ft | 399 kts | 274° |
| 2026-04-25 09:42 | 17.46165 | 77.41545 | 23581 ft | 401 kts | 274° |
| 2026-04-25 09:43 | 17.46534 | 77.38644 | 23986 ft | 403 kts | 274° |
| 2026-04-25 09:43 | 17.47031 | 77.34739 | 24535 ft | 405 kts | 274° |
| 2026-04-25 09:43 | 17.47277 | 77.32808 | 24814 ft | 405 kts | 274° |
| 2026-04-25 09:43 | 17.47650 | 77.29877 | 25212 ft | 407 kts | 274° |
| 2026-04-25 09:44 | 17.48022 | 77.26939 | 25596 ft | 408 kts | 274° |
| 2026-04-25 09:44 | 17.48396 | 77.23989 | 25974 ft | 409 kts | 274° |
| 2026-04-25 09:44 | 17.48893 | 77.20067 | 26442 ft | 411 kts | 274° |
| 2026-04-25 09:44 | 17.49146 | 77.18064 | 26675 ft | 412 kts | 274° |
| 2026-04-25 09:45 | 17.49522 | 77.15083 | 27026 ft | 413 kts | 273° |
| 2026-04-25 09:45 | 17.50022 | 77.11124 | 27489 ft | 415 kts | 273° |
| 2026-04-25 09:45 | 17.50277 | 77.09092 | 27725 ft | 416 kts | 273° |
| 2026-04-25 09:45 | 17.50655 | 77.06091 | 28040 ft | 417 kts | 273° |
| 2026-04-25 09:46 | 17.51035 | 77.03074 | 28357 ft | 419 kts | 273° |
| 2026-04-25 09:46 | 17.51415 | 77.00046 | 28670 ft | 420 kts | 273° |
| 2026-04-25 09:46 | 17.51796 | 76.97005 | 28980 ft | 421 kts | 273° |
| 2026-04-25 09:46 | 17.52177 | 76.93960 | 29304 ft | 422 kts | 273° |
| 2026-04-25 09:47 | 17.52558 | 76.90914 | 29603 ft | 423 kts | 272° |
| 2026-04-25 09:47 | 17.52935 | 76.87896 | 29848 ft | 424 kts | 272° |
| 2026-04-25 09:47 | 17.53319 | 76.84825 | 30117 ft | 425 kts | 272° |
| 2026-04-25 09:47 | 17.53707 | 76.81705 | 30348 ft | 427 kts | 272° |
| 2026-04-25 09:48 | 17.54085 | 76.78668 | 30645 ft | 426 kts | 272° |
| 2026-04-25 09:48 | 17.54550 | 76.75602 | 31007 ft | 427 kts | 277° |
| 2026-04-25 09:48 | 17.55400 | 76.72563 | 31343 ft | 433 kts | 285° |
| 2026-04-25 09:48 | 17.56699 | 76.69738 | 31644 ft | 440 kts | 294° |
| 2026-04-25 09:49 | 17.58493 | 76.67108 | 31966 ft | 448 kts | 304° |
| 2026-04-25 09:49 | 17.60741 | 76.64801 | 32278 ft | 457 kts | 314° |
| 2026-04-25 09:49 | 17.63393 | 76.62907 | 32579 ft | 466 kts | 323° |
| 2026-04-25 09:49 | 17.66250 | 76.61296 | 32975 ft | 466 kts | 325° |
| 2026-04-25 09:50 | 17.69127 | 76.59748 | 33340 ft | 464 kts | 325° |
| 2026-04-25 09:50 | 17.72035 | 76.58185 | 33632 ft | 464 kts | 325° |
| 2026-04-25 09:50 | 17.74873 | 76.56652 | 33887 ft | 464 kts | 325° |
| 2026-04-25 09:50 | 17.77745 | 76.55095 | 34128 ft | 464 kts | 325° |
| 2026-04-25 09:51 | 17.80612 | 76.53537 | 34384 ft | 464 kts | 325° |
| 2026-04-25 09:51 | 17.83472 | 76.51980 | 34664 ft | 462 kts | 325° |
| 2026-04-25 09:51 | 17.86321 | 76.50428 | 34928 ft | 461 kts | 325° |
| 2026-04-25 09:51 | 17.89170 | 76.48874 | 35126 ft | 462 kts | 324° |
| 2026-04-25 09:52 | 17.92024 | 76.47315 | 35319 ft | 463 kts | 324° |
| 2026-04-25 09:52 | 17.94878 | 76.45757 | 35559 ft | 462 kts | 324° |
| 2026-04-25 09:52 | 17.97721 | 76.44205 | 35810 ft | 461 kts | 324° |
| 2026-04-25 09:52 | 18.00566 | 76.42656 | 36015 ft | 461 kts | 325° |
| 2026-04-25 09:53 | 18.03424 | 76.41129 | 36228 ft | 460 kts | 325° |
| 2026-04-25 09:53 | 18.06272 | 76.39598 | 36443 ft | 457 kts | 322° |
| 2026-04-25 09:53 | 18.08912 | 76.37803 | 36637 ft | 447 kts | 314° |
| 2026-04-25 09:53 | 18.11207 | 76.35664 | 36819 ft | 436 kts | 304° |
| 2026-04-25 09:54 | 18.13083 | 76.33212 | 37000 ft | 425 kts | 295° |
| 2026-04-25 09:54 | 18.14620 | 76.30579 | 37179 ft | 421 kts | 292° |
| 2026-04-25 09:54 | 18.16061 | 76.27907 | 37378 ft | 419 kts | 291° |
| 2026-04-25 09:54 | 18.17482 | 76.25233 | 37553 ft | 419 kts | 291° |
| 2026-04-25 09:55 | 18.18900 | 76.22561 | 37745 ft | 418 kts | 291° |
| 2026-04-25 09:55 | 18.20318 | 76.19893 | 37894 ft | 418 kts | 291° |
| 2026-04-25 09:55 | 18.23155 | 76.14559 | 37922 ft | 418 kts | 291° |
| 2026-04-25 09:56 | 18.25990 | 76.09230 | 37922 ft | 417 kts | 291° |
| 2026-04-25 09:56 | 18.28823 | 76.03903 | 37922 ft | 417 kts | 291° |
| 2026-04-25 09:57 | 18.31654 | 75.98574 | 37922 ft | 417 kts | 291° |
| 2026-04-25 09:57 | 18.34483 | 75.93245 | 37925 ft | 417 kts | 291° |
| 2026-04-25 09:58 | 18.37308 | 75.87921 | 37922 ft | 417 kts | 291° |
| 2026-04-25 09:58 | 18.40133 | 75.82591 | 37922 ft | 417 kts | 291° |
| 2026-04-25 09:59 | 18.42958 | 75.77257 | 37918 ft | 417 kts | 291° |
| 2026-04-25 09:59 | 18.45783 | 75.71918 | 37915 ft | 418 kts | 291° |
| 2026-04-25 10:00 | 18.48608 | 75.66572 | 37922 ft | 418 kts | 291° |
| 2026-04-25 10:00 | 18.51434 | 75.61223 | 37911 ft | 418 kts | 291° |
| 2026-04-25 10:01 | 18.54258 | 75.55872 | 37910 ft | 418 kts | 291° |
| 2026-04-25 10:01 | 18.57061 | 75.50558 | 37912 ft | 417 kts | 291° |
| 2026-04-25 10:02 | 18.59878 | 75.45212 | 37897 ft | 417 kts | 291° |
| 2026-04-25 10:02 | 18.62692 | 75.39865 | 37901 ft | 417 kts | 292° |
| 2026-04-25 10:03 | 18.65501 | 75.34524 | 37892 ft | 417 kts | 292° |
| 2026-04-25 10:03 | 18.67889 | 75.29030 | 37898 ft | 408 kts | 283° |
| 2026-04-25 10:04 | 18.69669 | 75.23361 | 37893 ft | 407 kts | 281° |
| 2026-04-25 10:04 | 18.71386 | 75.17675 | 37892 ft | 407 kts | 281° |
| 2026-04-25 10:05 | 18.73095 | 75.11981 | 37890 ft | 407 kts | 281° |
| 2026-04-25 10:05 | 18.74799 | 75.06291 | 37896 ft | 407 kts | 281° |
| 2026-04-25 10:06 | 18.76494 | 75.00626 | 37242 ft | 402 kts | 281° |
| 2026-04-25 10:06 | 18.77332 | 74.97821 | 36618 ft | 400 kts | 281° |
| 2026-04-25 10:06 | 18.78167 | 74.95021 | 35973 ft | 400 kts | 281° |
| 2026-04-25 10:07 | 18.79001 | 74.92223 | 35318 ft | 400 kts | 280° |
| 2026-04-25 10:07 | 18.79835 | 74.89420 | 34656 ft | 401 kts | 280° |
| 2026-04-25 10:07 | 18.80670 | 74.86617 | 33999 ft | 401 kts | 280° |
| 2026-04-25 10:07 | 18.81506 | 74.83808 | 33301 ft | 401 kts | 280° |
| 2026-04-25 10:08 | 18.82341 | 74.81003 | 32668 ft | 399 kts | 280° |
| 2026-04-25 10:08 | 18.83170 | 74.78219 | 32095 ft | 396 kts | 280° |
| 2026-04-25 10:08 | 18.83991 | 74.75461 | 31561 ft | 393 kts | 280° |
| 2026-04-25 10:08 | 18.84805 | 74.72720 | 31009 ft | 390 kts | 281° |
| 2026-04-25 10:09 | 18.85612 | 74.70003 | 30458 ft | 387 kts | 281° |
| 2026-04-25 10:09 | 18.86414 | 74.67297 | 29918 ft | 385 kts | 281° |
| 2026-04-25 10:09 | 18.87211 | 74.64607 | 29294 ft | 383 kts | 281° |
| 2026-04-25 10:09 | 18.88003 | 74.61931 | 28651 ft | 381 kts | 281° |
| 2026-04-25 10:10 | 18.88793 | 74.59262 | 28014 ft | 380 kts | 282° |
| 2026-04-25 10:10 | 18.89580 | 74.56602 | 27409 ft | 379 kts | 282° |
| 2026-04-25 10:10 | 18.90365 | 74.53946 | 26809 ft | 378 kts | 283° |
| 2026-04-25 10:10 | 18.91149 | 74.51293 | 26223 ft | 377 kts | 283° |
| 2026-04-25 10:11 | 18.91929 | 74.48652 | 25678 ft | 377 kts | 284° |
| 2026-04-25 10:11 | 18.92707 | 74.46018 | 25124 ft | 376 kts | 284° |
| 2026-04-25 10:11 | 18.93483 | 74.43385 | 24583 ft | 375 kts | 284° |
| 2026-04-25 10:11 | 18.94258 | 74.40758 | 24051 ft | 374 kts | 285° |
| 2026-04-25 10:12 | 18.95031 | 74.38134 | 23521 ft | 374 kts | 285° |
| 2026-04-25 10:12 | 18.95803 | 74.35515 | 22907 ft | 373 kts | 286° |
| 2026-04-25 10:12 | 18.97340 | 74.30295 | 21782 ft | 369 kts | 285° |
| 2026-04-25 10:13 | 18.98098 | 74.27721 | 21293 ft | 365 kts | 286° |
| 2026-04-25 10:13 | 18.98849 | 74.25166 | 20771 ft | 363 kts | 285° |
| 2026-04-25 10:13 | 18.99593 | 74.22634 | 20283 ft | 360 kts | 286° |
| 2026-04-25 10:13 | 19.00332 | 74.20115 | 19751 ft | 358 kts | 286° |
| 2026-04-25 10:14 | 19.01068 | 74.17608 | 19219 ft | 357 kts | 287° |
| 2026-04-25 10:14 | 19.01801 | 74.15110 | 18730 ft | 355 kts | 287° |
| 2026-04-25 10:14 | 19.02517 | 74.12666 | 18245 ft | 353 kts | 287° |
| 2026-04-25 10:14 | 19.03240 | 74.10196 | 17706 ft | 351 kts | 287° |
| 2026-04-25 10:15 | 19.03958 | 74.07744 | 17163 ft | 348 kts | 287° |
| 2026-04-25 10:15 | 19.04671 | 74.05309 | 16647 ft | 345 kts | 287° |
| 2026-04-25 10:15 | 19.05376 | 74.02897 | 16136 ft | 342 kts | 287° |
| 2026-04-25 10:15 | 19.06074 | 74.00509 | 15641 ft | 339 kts | 288° |
| 2026-04-25 10:16 | 19.06771 | 73.98126 | 15051 ft | 340 kts | 287° |
| 2026-04-25 10:16 | 19.07469 | 73.95736 | 14533 ft | 339 kts | 287° |
| 2026-04-25 10:16 | 19.08163 | 73.93360 | 14058 ft | 337 kts | 286° |
| 2026-04-25 10:16 | 19.08849 | 73.91004 | 13596 ft | 334 kts | 288° |
| 2026-04-25 10:17 | 19.09529 | 73.88671 | 13085 ft | 331 kts | 288° |
| 2026-04-25 10:17 | 19.10205 | 73.86355 | 12589 ft | 328 kts | 288° |
| 2026-04-25 10:17 | 19.10862 | 73.84055 | 12110 ft | 326 kts | 285° |
| 2026-04-25 10:17 | 19.11230 | 73.81695 | 11902 ft | 326 kts | 276° |
| 2026-04-25 10:18 | 19.11406 | 73.79303 | 11875 ft | 327 kts | 275° |
| 2026-04-25 10:18 | 19.11555 | 73.76903 | 11857 ft | 327 kts | 275° |
| 2026-04-25 10:18 | 19.11702 | 73.74505 | 11856 ft | 327 kts | 275° |
| 2026-04-25 10:18 | 19.11848 | 73.72112 | 11507 ft | 325 kts | 275° |
| 2026-04-25 10:19 | 19.11999 | 73.69735 | 11032 ft | 322 kts | 275° |
| 2026-04-25 10:19 | 19.12152 | 73.67380 | 10568 ft | 320 kts | 275° |
| 2026-04-25 10:19 | 19.12300 | 73.65034 | 10053 ft | 319 kts | 275° |
| 2026-04-25 10:19 | 19.12468 | 73.62700 | 9517 ft | 319 kts | 275° |
| 2026-04-25 10:20 | 19.12655 | 73.60363 | 9057 ft | 316 kts | 275° |
| 2026-04-25 10:20 | 19.12831 | 73.58088 | 8857 ft | 307 kts | 275° |
| 2026-04-25 10:20 | 19.13004 | 73.55844 | 8835 ft | 306 kts | 275° |
| 2026-04-25 10:20 | 19.13178 | 73.53599 | 8814 ft | 303 kts | 275° |
| 2026-04-25 10:21 | 19.13344 | 73.51431 | 8840 ft | 289 kts | 275° |
| 2026-04-25 10:21 | 19.13505 | 73.49340 | 8812 ft | 283 kts | 275° |
| 2026-04-25 10:21 | 19.13665 | 73.47265 | 8812 ft | 284 kts | 275° |
| 2026-04-25 10:21 | 19.13821 | 73.45183 | 8809 ft | 284 kts | 275° |
| 2026-04-25 10:22 | 19.13975 | 73.43102 | 8678 ft | 284 kts | 275° |
| 2026-04-25 10:22 | 19.14077 | 73.41720 | 8383 ft | 284 kts | 275° |
| 2026-04-25 10:22 | 19.14278 | 73.38954 | 7910 ft | 279 kts | 275° |
| 2026-04-25 10:22 | 19.14426 | 73.36918 | 7526 ft | 277 kts | 275° |
| 2026-04-25 10:23 | 19.14408 | 73.34877 | 7045 ft | 280 kts | 260° |
| 2026-04-25 10:23 | 19.13899 | 73.32889 | 6697 ft | 279 kts | 251° |
| 2026-04-25 10:23 | 19.13257 | 73.30969 | 6324 ft | 276 kts | 250° |
| 2026-04-25 10:23 | 19.12600 | 73.29072 | 6070 ft | 274 kts | 250° |
| 2026-04-25 10:24 | 19.11956 | 73.27181 | 6027 ft | 273 kts | 250° |
| 2026-04-25 10:24 | 19.11329 | 73.25305 | 5908 ft | 269 kts | 250° |
| 2026-04-25 10:24 | 19.10705 | 73.23450 | 5510 ft | 266 kts | 250° |
| 2026-04-25 10:24 | 19.10085 | 73.21643 | 5231 ft | 256 kts | 250° |
| 2026-04-25 10:25 | 19.09500 | 73.19938 | 5051 ft | 244 kts | 253° |
| 2026-04-25 10:25 | 19.09259 | 73.18173 | 4737 ft | 238 kts | 269° |
| 2026-04-25 10:25 | 19.09238 | 73.16468 | 4424 ft | 231 kts | 270° |
| 2026-04-25 10:25 | 19.09221 | 73.14793 | 4133 ft | 225 kts | 271° |
| 2026-04-25 10:26 | 19.09212 | 73.13155 | 3750 ft | 221 kts | 271° |
| 2026-04-25 10:26 | 19.09206 | 73.11539 | 3446 ft | 218 kts | 272° |
| 2026-04-25 10:26 | 19.09196 | 73.09950 | 3166 ft | 214 kts | 272° |
| 2026-04-25 10:26 | 19.09180 | 73.08370 | 2954 ft | 211 kts | 272° |
| 2026-04-25 10:27 | 19.09157 | 73.06811 | 2911 ft | 213 kts | 273° |
| 2026-04-25 10:27 | 19.09131 | 73.05257 | 2901 ft | 208 kts | 272° |
| 2026-04-25 10:27 | 19.09104 | 73.03815 | 2852 ft | 186 kts | 272° |
| 2026-04-25 10:27 | 19.09086 | 73.02487 | 2658 ft | 177 kts | 273° |
| 2026-04-25 10:28 | 19.09070 | 73.01233 | 2405 ft | 167 kts | 273° |
| 2026-04-25 10:28 | 19.09052 | 73.00028 | 2204 ft | 158 kts | 274° |
| 2026-04-25 10:28 | 19.09038 | 72.98889 | 2003 ft | 157 kts | 272° |
| 2026-04-25 10:28 | 19.09028 | 72.98104 | 1877 ft | 158 kts | 273° |
| 2026-04-25 10:29 | 19.09011 | 72.96961 | 1703 ft | 149 kts | 273° |
| 2026-04-25 10:29 | 19.08996 | 72.95913 | 1501 ft | 137 kts | 273° |
| 2026-04-25 10:29 | 19.08978 | 72.94612 | 1260 ft | 133 kts | 274° |
| 2026-04-25 10:29 | 19.08966 | 72.93624 | 1102 ft | 136 kts | 274° |
| 2026-04-25 10:30 | 19.08953 | 72.92621 | 934 ft | 136 kts | 275° |
| 2026-04-25 10:30 | 19.08943 | 72.91945 | 816 ft | 135 kts | 274° |
| 2026-04-25 10:30 | 19.08930 | 72.90966 | 672 ft | 132 kts | 270° |
| 2026-04-25 10:30 | 19.08915 | 72.90027 | 462 ft | 127 kts | 269° |
| 2026-04-25 10:31 | 19.08901 | 72.89083 | 315 ft | 128 kts | 271° |
| 2026-04-25 10:31 | 19.08888 | 72.88139 | 170 ft | 129 kts | 271° |
| 2026-04-25 10:31 | 19.08879 | 72.87221 | 55 ft | 118 kts | 270° |
| 2026-04-25 10:31 | 19.08869 | 72.86533 | 51 ft | 69 kts | 269° |
| 2026-04-25 10:32 | 19.08863 | 72.86194 | 50 ft | 34 kts | 269° |
| 2026-04-25 10:32 | 19.08883 | 72.85975 | 47 ft | 28 kts | 289° |
| 2026-04-25 10:32 | 19.08939 | 72.85857 | 52 ft | 12 kts | 300° |
| 2026-04-25 10:32 | 19.08982 | 72.85780 | 52 ft | 12 kts | 300° |
| 2026-04-25 10:33 | 19.09024 | 72.85702 | 52 ft | 12 kts | 285° |
| 2026-04-25 10:33 | 19.09030 | 72.85620 | 52 ft | 8 kts | 289° |
| 2026-04-25 10:33 | 19.09068 | 72.85602 | 52 ft | 5 kts | 358° |
| 2026-04-25 10:33 | 19.09093 | 72.85589 | 52 ft | 2 kts | 285° |
| 2026-04-25 10:34 | 19.09096 | 72.85570 | 52 ft | 4 kts | 295° |
| 2026-04-25 10:34 | 19.09125 | 72.85563 | 52 ft | 4 kts | 1° |
| 2026-04-25 10:34 | 19.09147 | 72.85563 | 52 ft | 1 kts | 359° |
| 2026-04-25 10:34 | 19.09155 | 72.85563 | 52 ft | 0 kts | 359° |